Latest Coastal Weather Observations for Burnie Port

IDT60701

Issued at 4:32 am EST Monday 25 July 2016 (issued every 10 minutes, with the page automatically refreshed every 10 minutes)

About coastal observations | Map of coastal stations | Coastal observations for TAS | Marine services | Other Formats
Station Details ID: 091344 Name: BURNIE NTC AWS Lat: -41.05 Lon: 145.91 Height: 0.0 m
Data from the previous 72 hours. | See also: Recent months for locations in Tasmania
Date/Time
EST
Temp
°C
Wind Pressure Rain since
9am
mm
Weather Cloud Vis
km
Sea
Height
m
Swell
Dir  Spd
kts
Gust
kts
hPa Trend Height
m
Period
s
Dir
25/04:30am - SSW 3 4 999.7 - - - - - - - - -
25/04:00am - SSW 5 7 999.6 - - - - - - - - -
25/03:30am - SSW 5 9 999.7 - - - - - - - - -
25/03:00am - SSW 4 5 999.8 - - - - - - - - -
25/02:30am - SSW 5 6 1000.2 - - - - - - - - -
25/02:00am - SSW 5 7 1000.2 - - - - - - - - -
25/01:30am - S 6 8 1000.2 - - - - - - - - -
25/01:00am - S 8 10 1000.6 - - - - - - - - -
25/12:30am - SSW 8 10 1000.8 - - - - - - - - -
25/12:00am - S 7 10 1001.3 - - - - - - - - -
 
Date/Time
EST
Temp
°C
Wind Pressure Rain since
9am
mm
Weather Cloud Vis
km
Sea
Height
m
Swell
Dir  Spd
kts
Gust
kts
hPa Trend Height
m
Period
s
Dir
24/11:30pm - SSE 5 9 1001.4 - - - - - - - - -
24/11:00pm - S 5 7 1001.5 - - - - - - - - -
24/10:30pm - SSW 4 5 1001.5 - - - - - - - - -
24/10:00pm - SSW 5 6 1001.6 - - - - - - - - -
24/09:30pm - S 4 6 1002.0 - - - - - - - - -
24/09:00pm - S 5 7 1002.6 - - - - - - - - -
24/08:30pm - S 8 9 1002.2 - - - - - - - - -
24/08:00pm - SSW 3 4 1002.6 - - - - - - - - -
24/07:30pm - S 3 4 1002.7 - - - - - - - - -
24/07:00pm - S 4 5 1002.9 - - - - - - - - -
24/06:30pm - SSW 3 4 1003.1 - - - - - - - - -
24/06:00pm - S 5 6 1003.1 - - - - - - - - -
24/05:30pm - SSW 5 6 1003.1 - - - - - - - - -
24/05:00pm - SE 2 3 1003.1 - - - - - - - - -
24/04:30pm - ESE 6 8 1003.2 - - - - - - - - -
24/04:00pm - ESE 4 5 1003.5 - - - - - - - - -
24/03:30pm - ENE 4 7 1003.7 - - - - - - - - -
24/03:00pm - ESE 3 8 1003.7 - - - - - - - - -
24/02:30pm - SSE 2 3 1003.9 - - - - - - - - -
24/02:00pm - S 3 4 1004.1 - - - - - - - - -
24/01:30pm - SE 2 3 1004.6 - - - - - - - - -
24/01:00pm - ESE 4 5 1004.7 - - - - - - - - -
24/12:30pm - E 4 6 1005.0 - - - - - - - - -
24/12:00pm - ENE 3 4 1005.5 - - - - - - - - -
24/11:30am - NE 2 4 1006.0 - - - - - - - - -
24/11:00am - ESE 2 3 1006.5 - - - - - - - - -
24/10:30am - E 1 1 1006.6 - - - - - - - - -
24/10:00am - E 1 2 1006.7 - - - - - - - - -
24/09:30am - E 2 3 1006.8 - - - - - - - - -
24/09:00am - S 4 6 1006.8 - - - - - - - - -
24/08:30am - S 4 5 1006.8 - - - - - - - - -
24/08:00am - S 4 5 1006.9 - - - - - - - - -
24/07:30am - SSW 4 6 1006.9 - - - - - - - - -
24/07:00am - SW 1 3 1006.9 - - - - - - - - -
24/06:30am - WNW 3 5 1006.8 - - - - - - - - -
24/06:00am - WSW 3 6 1006.9 - - - - - - - - -
24/05:30am - WSW 1 3 1006.7 - - - - - - - - -
24/05:00am - SW 2 4 1006.6 - - - - - - - - -
24/04:30am - SW 2 4 1007.0 - - - - - - - - -
24/04:00am - WNW 1 2 1006.8 - - - - - - - - -
24/03:30am - SW 3 6 1007.0 - - - - - - - - -
24/03:00am - WNW 4 5 1007.2 - - - - - - - - -
24/02:30am - WNW 4 6 1007.4 - - - - - - - - -
24/02:00am - WSW 5 7 1007.6 - - - - - - - - -
24/01:30am - SW 5 8 1007.4 - - - - - - - - -
24/01:00am - SW 2 4 1007.4 - - - - - - - - -
24/12:30am - WSW 5 8 1007.4 - - - - - - - - -
24/12:00am - WSW 6 9 1007.6 - - - - - - - - -
 
Date/Time
EST
Temp
°C
Wind Pressure Rain since
9am
mm
Weather Cloud Vis
km
Sea
Height
m
Swell
Dir  Spd
kts
Gust
kts
hPa Trend Height
m
Period
s
Dir
23/11:30pm - WSW 6 8 1007.5 - - - - - - - - -
23/11:00pm - WSW 5 9 1007.2 - - - - - - - - -
23/10:30pm - W 7 10 1007.2 - - - - - - - - -
23/10:00pm - W 5 8 1006.8 - - - - - - - - -
23/09:30pm - WNW 5 9 1006.5 - - - - - - - - -
23/09:00pm - WNW 8 12 1006.0 - - - - - - - - -
23/08:30pm - W 6 9 1005.6 - - - - - - - - -
23/08:00pm - W 6 9 1005.2 - - - - - - - - -
23/07:30pm - W 7 12 1004.4 - - - - - - - - -
23/07:00pm - WNW 4 7 1003.9 - - - - - - - - -
23/06:30pm - W 10 16 1003.2 - - - - - - - - -
23/06:00pm - WNW 7 11 1002.2 - - - - - - - - -
23/05:30pm - W 7 11 1001.4 - - - - - - - - -
23/05:00pm - W 9 14 1000.6 - - - - - - - - -
23/04:30pm - WSW 12 21 999.7 - - - - - - - - -
23/04:00pm - WSW 14 21 998.0 - - - - - - - - -
23/03:30pm - WSW 14 28 996.9 - - - - - - - - -
23/03:00pm - W 13 22 995.6 - - - - - - - - -
23/02:30pm - WNW 15 28 994.5 - - - - - - - - -
23/02:03pm - WNW 15 27 994.7 - - - - - - - - -
23/02:00pm - WNW 13 23 994.6 - - - - - - - - -
23/01:30pm - WSW 5 11 995.1 - - - - - - - - -
23/01:11pm - WSW 12 28 996.0 - - - - - - - - -
23/01:00pm - WNW 12 18 995.3 - - - - - - - - -
23/12:30pm - W 13 20 995.2 - - - - - - - - -
23/12:00pm - WNW 12 19 995.4 - - - - - - - - -
23/11:30am - WNW 9 16 995.3 - - - - - - - - -
23/11:00am - W 9 16 995.0 - - - - - - - - -
23/10:30am - WNW 9 17 994.9 - - - - - - - - -
23/10:00am - W 12 21 994.4 - - - - - - - - -
23/09:30am - W 10 16 993.3 - - - - - - - - -
23/09:00am - WSW 15 35 993.2 - - - - - - - - -
23/08:30am - W 12 19 992.1 - - - - - - - - -
23/08:00am - WSW 8 14 991.8 - - - - - - - - -
23/07:30am - WSW 14 22 991.5 - - - - - - - - -
23/07:00am - WSW 11 19 990.2 - - - - - - - - -
23/06:30am - WSW 18 29 990.6 - - - - - - - - -
23/06:18am - W 15 26 990.2 - - - - - - - - -
23/06:00am - WSW 10 22 989.1 - - - - - - - - -
23/05:30am - W 9 15 988.1 - - - - - - - - -
23/05:00am - WSW 8 13 988.1 - - - - - - - - -
23/04:30am - W 10 15 987.3 - - - - - - - - -
23/04:00am - W 13 24 987.5 - - - - - - - - -
23/03:55am - W 15 25 987.6 - - - - - - - - -
23/03:30am - W 11 18 987.1 - - - - - - - - -
23/03:00am - WNW 6 9 987.2 - - - - - - - - -
23/02:30am - W 8 12 987.3 - - - - - - - - -
23/02:00am - W 7 12 987.2 - - - - - - - - -
23/01:30am - W 7 9 987.2 - - - - - - - - -
23/01:00am - W 6 10 987.7 - - - - - - - - -
23/12:30am - W 6 10 988.0 - - - - - - - - -
23/12:00am - W 6 8 988.4 - - - - - - - - -
 
Date/Time
EST
Temp
°C
Wind Pressure Rain since
9am
mm
Weather Cloud Vis
km
Sea
Height
m
Swell
Dir  Spd
kts
Gust
kts
hPa Trend Height
m
Period
s
Dir
22/11:30pm - W 5 7 988.5 - - - - - - - - -
22/11:00pm - W 7 9 988.6 - - - - - - - - -
22/10:30pm - WNW 7 11 989.0 - - - - - - - - -
22/10:00pm - W 6 8 988.7 - - - - - - - - -
22/09:30pm - W 8 11 989.3 - - - - - - - - -
22/09:00pm - WNW 7 11 989.3 - - - - - - - - -
22/08:30pm - WNW 10 17 989.4 - - - - - - - - -
22/08:00pm - WNW 8 14 989.3 - - - - - - - - -
22/07:30pm - WNW 6 10 988.8 - - - - - - - - -
22/07:00pm - WNW 8 13 988.5 - - - - - - - - -
22/06:30pm - W 7 11 988.5 - - - - - - - - -
22/06:00pm - W 10 15 987.9 - - - - - - - - -
22/05:30pm - W 10 17 987.5 - - - - - - - - -
22/05:00pm - W 13 22 987.3 - - - - - - - - -
22/04:30pm - W 20 33 987.1 - - - - - - - - -
22/04:00pm - W 21 35 986.6 - - - - - - - - -
22/03:30pm - W 16 32 985.7 - - - - - - - - -
22/03:00pm - W 18 31 985.2 - - - - - - - - -

Other Formats:

Comma delimited format used in spreadsheet applications
http://www.bom.gov.au/fwo/IDT60701/IDT60701.95963.axf

JavaScript Object Notation format (JSON) in row-major order
http://www.bom.gov.au/fwo/IDT60701/IDT60701.95963.json